Name Map standard Created Modified Scale Latitude Longitide Thumbnail
1 Assiniboine Forest Other 2012-09-14 2012-10-17 1:5,000 49.846 -97.233
2 Assiniboine Park Other 2012-03-29 2012-09-12   49.869 -97.226
3 Australia ISOM2000 2012-03-29 2012-10-01   49.894 -99.149
4 Birds Hill Group Use ISSprOM 2012-03-29 2012-09-26   50.022 -96.920
5 Birds Hill Park ISOM2000 2012-03-29 2012-10-01   50.020 -96.899
6 Brandon Hills ISOM2000 2012-03-29 2012-10-01   49.696 -99.860
7 Bruce Park ISSprOM 2012-03-25 2012-10-01   49.877 -97.226
8 Crescent Park Other 2012-03-29 2012-10-01   49.834 -97.135
9 Cypress River Sand Hills ISOM2017 2018-09-11 2018-09-11   49.622 -99.073
10 Cypress River Sand Hills Sprint ISSprOM 2018-09-11 2018-09-11 1:5,000 49.636 -99.080
11 Falcon Trails Resort ISSprOM 2012-03-29 2012-09-12   49.702 -95.187
12 Fort Whyte Permanent Course ISSprOM 2012-03-29 2012-09-12   49.821 -97.225
13 Glen Valley ISOM2000 2012-03-29 2014-08-31   49.686 -99.206
14 Grand Beach ISOM2000 2012-03-29 2012-06-14   50.566 -96.579
15 Hartney ISOM2000 2012-03-29 2012-04-27   49.462 -100.688
16 Hartney - Juniper Hill ISSprOM 2012-03-29 2012-10-01   49.466 -100.677
17 Hog's Back ISOM2000 2012-03-29 2012-06-03   49.681 -99.066
18 Hog's Back (Sprint) ISSprOM 2012-03-29 2012-10-01   49.642 -99.077
19 Island Park Other 2012-03-29 2012-10-01   49.965 -98.291
20 Jessica Lake ISOM2000 2012-03-29 2012-10-01   50.018 -95.519
21 Kelvin High School ISSprOM 2012-03-29 2012-10-01   49.874 -97.167
22 Kiche Manitou ISSprOM 2012-03-29 2012-08-23   49.654 -99.254
23 Kilcona Park Other 2012-03-29 2012-10-01   49.936 -97.037
24 Kildonan Park ISSprOM 2012-03-29 2012-10-01   49.943 -97.099
25 King's Park ISSprOM 2012-03-29 2012-05-29   49.799 -97.124
26 LaBarriere Park ISSprOM 2012-03-29 2012-06-18   49.720 -97.173
27 Langford Community Pasture ISOM2000 2012-03-29 2012-04-30   50.163 -99.342
28 Little Mountain Park ISSprOM 2012-03-29 2012-10-01   49.961 -97.247
29 Living Prairie Park ISSprOM 2012-03-29 2012-06-13   49.890 -97.272
30 Omand's Creek ISSprOM 2012-03-29 2012-10-01   49.880 -97.192
31 Queen Elizabeth Park Other 2012-03-29 2012-10-01   49.854 -99.975
32 Selkirk Park ISSprOM 2012-03-29 2012-10-01   50.155 -96.858
33 Seton Park North ISOM2000 2012-03-29 2012-09-02   49.910 -99.226
34 Spirit Sands ISOM2000 2012-03-29 2012-10-01   49.716 -99.286
35 St. Johns Park ISSprOM 2012-03-29 2012-10-01   49.919 -97.127
36 St. Malo Park ISSprOM 2012-03-25 2012-05-29 1:5,000 49.318 -96.937
37 St. Vital Park ISSprOM 2012-03-29 2012-10-01   49.829 -97.142
38 Stonewall Quarry Park ISSprOM 2012-03-29 2012-10-01   50.142 -97.326
39 The Forks ISSprOM 2012-03-29 2012-09-05   49.889 -97.129
40 Transcona Bioreserve ISOM2000 2019-09-12 2019-09-12 1:5,000 49.915 -97.012
41 University of Manitoba ISSprOM 2012-03-29 2015-04-30   49.809 -97.133
42 Vermillion Park Other 2012-03-29 2012-10-01   51.159 -100.051
43 Westview Park ISSprOM 2018-10-08 2018-10-08 1:4,000 49.901 -97.194
44 Whittier, Lagomodiere and Gaboury Park ISSprOM 2012-03-29 2012-10-01   49.897 -97.115
45 Wildwood Park ISSprOM 2012-03-29 2012-10-01   49.848 -97.125
46 Yellow Quill ISOM2000 2012-03-29 2012-07-09   49.730 -99.292